sensor_id;sensor_type;location;lat;lon;timestamp;temperature;humidity
20416;DHT22;10367;52.202;5.996;2023-06-26T00:02:08;22.30;99.90
20416;DHT22;10367;52.202;5.996;2023-06-26T00:04:37;22.00;99.90
20416;DHT22;10367;52.202;5.996;2023-06-26T00:07:06;22.00;99.90
20416;DHT22;10367;52.202;5.996;2023-06-26T00:09:43;22.00;99.90
20416;DHT22;10367;52.202;5.996;2023-06-26T00:12:16;21.80;99.90
20416;DHT22;10367;52.202;5.996;2023-06-26T00:14:46;21.80;99.90
20416;DHT22;10367;52.202;5.996;2023-06-26T00:17:18;21.70;99.90
20416;DHT22;10367;52.202;5.996;2023-06-26T00:19:50;21.70;99.90
20416;DHT22;10367;52.202;5.996;2023-06-26T00:22:21;21.70;99.90
20416;DHT22;10367;52.202;5.996;2023-06-26T00:24:54;21.70;99.90
20416;DHT22;10367;52.202;5.996;2023-06-26T00:27:23;21.70;99.90
20416;DHT22;10367;52.202;5.996;2023-06-26T00:29:52;21.70;99.90
20416;DHT22;10367;52.202;5.996;2023-06-26T00:32:24;21.70;99.90
20416;DHT22;10367;52.202;5.996;2023-06-26T00:35:03;21.50;99.90
20416;DHT22;10367;52.202;5.996;2023-06-26T00:37:32;21.40;99.90
20416;DHT22;10367;52.202;5.996;2023-06-26T00:40:03;21.30;99.90
20416;DHT22;10367;52.202;5.996;2023-06-26T00:42:33;21.30;99.90
20416;DHT22;10367;52.202;5.996;2023-06-26T00:45:02;21.30;99.90
20416;DHT22;10367;52.202;5.996;2023-06-26T00:47:31;21.40;99.90
20416;DHT22;10367;52.202;5.996;2023-06-26T00:50:01;21.40;99.90
20416;DHT22;10367;52.202;5.996;2023-06-26T00:52:31;21.40;99.90
20416;DHT22;10367;52.202;5.996;2023-06-26T00:55:03;21.30;99.90
20416;DHT22;10367;52.202;5.996;2023-06-26T00:57:32;21.30;99.90
20416;DHT22;10367;52.202;5.996;2023-06-26T01:00:08;21.20;99.90
20416;DHT22;10367;52.202;5.996;2023-06-26T01:02:42;21.10;99.90
20416;DHT22;10367;52.202;5.996;2023-06-26T01:05:17;21.20;99.90
20416;DHT22;10367;52.202;5.996;2023-06-26T01:07:50;21.40;99.90
20416;DHT22;10367;52.202;5.996;2023-06-26T01:10:21;21.40;99.90
20416;DHT22;10367;52.202;5.996;2023-06-26T01:12:51;21.30;99.90
20416;DHT22;10367;52.202;5.996;2023-06-26T01:15:20;21.30;99.90
20416;DHT22;10367;52.202;5.996;2023-06-26T01:17:51;21.40;99.90
20416;DHT22;10367;52.202;5.996;2023-06-26T01:20:21;21.40;99.90
20416;DHT22;10367;52.202;5.996;2023-06-26T01:23:03;21.30;99.90
20416;DHT22;10367;52.202;5.996;2023-06-26T01:25:41;21.10;99.90
20416;DHT22;10367;52.202;5.996;2023-06-26T01:28:24;20.90;99.90
20416;DHT22;10367;52.202;5.996;2023-06-26T01:31:00;20.80;99.90
20416;DHT22;10367;52.202;5.996;2023-06-26T01:33:30;20.90;99.90
20416;DHT22;10367;52.202;5.996;2023-06-26T01:36:02;20.80;99.90
20416;DHT22;10367;52.202;5.996;2023-06-26T01:38:35;20.80;99.90
20416;DHT22;10367;52.202;5.996;2023-06-26T01:41:09;20.90;99.90
20416;DHT22;10367;52.202;5.996;2023-06-26T01:43:50;20.90;99.90
20416;DHT22;10367;52.202;5.996;2023-06-26T01:46:37;20.80;99.90
20416;DHT22;10367;52.202;5.996;2023-06-26T01:49:11;20.80;99.90
20416;DHT22;10367;52.202;5.996;2023-06-26T01:51:45;20.90;99.90
20416;DHT22;10367;52.202;5.996;2023-06-26T01:54:20;21.00;99.90
20416;DHT22;10367;52.202;5.996;2023-06-26T01:56:54;21.10;99.90
20416;DHT22;10367;52.202;5.996;2023-06-26T01:59:28;21.30;99.90
20416;DHT22;10367;52.202;5.996;2023-06-26T02:02:01;21.40;99.90
20416;DHT22;10367;52.202;5.996;2023-06-26T02:04:32;21.50;99.90
20416;DHT22;10367;52.202;5.996;2023-06-26T02:07:06;21.60;99.90
20416;DHT22;10367;52.202;5.996;2023-06-26T02:09:37;21.70;99.90
20416;DHT22;10367;52.202;5.996;2023-06-26T02:12:07;21.80;99.90
20416;DHT22;10367;52.202;5.996;2023-06-26T02:14:47;21.90;99.90
20416;DHT22;10367;52.202;5.996;2023-06-26T02:17:20;21.90;99.90
20416;DHT22;10367;52.202;5.996;2023-06-26T02:20:03;22.00;99.90
20416;DHT22;10367;52.202;5.996;2023-06-26T02:22:33;22.00;99.90
20416;DHT22;10367;52.202;5.996;2023-06-26T02:25:04;22.00;99.90
20416;DHT22;10367;52.202;5.996;2023-06-26T02:27:35;22.00;99.90
20416;DHT22;10367;52.202;5.996;2023-06-26T02:30:12;22.00;99.90
20416;DHT22;10367;52.202;5.996;2023-06-26T02:32:45;22.00;99.90
20416;DHT22;10367;52.202;5.996;2023-06-26T02:35:15;21.90;99.90
20416;DHT22;10367;52.202;5.996;2023-06-26T02:37:47;21.90;99.90
20416;DHT22;10367;52.202;5.996;2023-06-26T02:40:22;21.80;99.90
20416;DHT22;10367;52.202;5.996;2023-06-26T02:42:52;21.80;99.90
20416;DHT22;10367;52.202;5.996;2023-06-26T02:45:26;21.80;99.90
20416;DHT22;10367;52.202;5.996;2023-06-26T02:47:58;21.70;99.90
20416;DHT22;10367;52.202;5.996;2023-06-26T02:50:34;21.70;99.90
20416;DHT22;10367;52.202;5.996;2023-06-26T02:53:03;21.60;99.90
20416;DHT22;10367;52.202;5.996;2023-06-26T02:55:34;21.60;99.90
20416;DHT22;10367;52.202;5.996;2023-06-26T02:58:03;21.50;99.90
20416;DHT22;10367;52.202;5.996;2023-06-26T03:00:34;21.50;99.90
20416;DHT22;10367;52.202;5.996;2023-06-26T03:03:09;21.50;99.90
20416;DHT22;10367;52.202;5.996;2023-06-26T03:05:38;21.40;99.90
20416;DHT22;10367;52.202;5.996;2023-06-26T03:08:07;21.40;99.90
20416;DHT22;10367;52.202;5.996;2023-06-26T03:10:38;21.40;99.90
20416;DHT22;10367;52.202;5.996;2023-06-26T03:13:08;21.30;99.90
20416;DHT22;10367;52.202;5.996;2023-06-26T03:15:39;21.30;99.90
20416;DHT22;10367;52.202;5.996;2023-06-26T03:18:08;21.20;99.90
20416;DHT22;10367;52.202;5.996;2023-06-26T03:20:38;21.20;99.90
20416;DHT22;10367;52.202;5.996;2023-06-26T03:23:08;21.20;99.90
20416;DHT22;10367;52.202;5.996;2023-06-26T03:25:37;21.20;99.90
20416;DHT22;10367;52.202;5.996;2023-06-26T03:28:07;21.10;99.90
20416;DHT22;10367;52.202;5.996;2023-06-26T03:30:43;21.10;99.90
20416;DHT22;10367;52.202;5.996;2023-06-26T03:33:13;21.10;99.90
20416;DHT22;10367;52.202;5.996;2023-06-26T03:35:44;21.10;99.90
20416;DHT22;10367;52.202;5.996;2023-06-26T03:38:17;21.10;99.90
20416;DHT22;10367;52.202;5.996;2023-06-26T03:40:56;21.00;99.90
20416;DHT22;10367;52.202;5.996;2023-06-26T03:43:25;21.00;99.90
20416;DHT22;10367;52.202;5.996;2023-06-26T03:45:55;21.00;99.90
20416;DHT22;10367;52.202;5.996;2023-06-26T03:48:32;21.00;99.90
20416;DHT22;10367;52.202;5.996;2023-06-26T03:51:09;20.90;99.90
20416;DHT22;10367;52.202;5.996;2023-06-26T03:53:38;20.90;99.90
20416;DHT22;10367;52.202;5.996;2023-06-26T03:56:10;20.80;99.90
20416;DHT22;10367;52.202;5.996;2023-06-26T03:58:39;20.80;99.90
20416;DHT22;10367;52.202;5.996;2023-06-26T04:01:10;20.70;99.90
20416;DHT22;10367;52.202;5.996;2023-06-26T04:03:38;20.60;99.90
20416;DHT22;10367;52.202;5.996;2023-06-26T04:06:07;20.60;99.90
20416;DHT22;10367;52.202;5.996;2023-06-26T04:08:39;20.60;99.90
20416;DHT22;10367;52.202;5.996;2023-06-26T04:11:08;20.70;99.90
20416;DHT22;10367;52.202;5.996;2023-06-26T04:13:37;20.70;99.90
20416;DHT22;10367;52.202;5.996;2023-06-26T04:16:10;20.70;99.90
20416;DHT22;10367;52.202;5.996;2023-06-26T04:18:39;20.70;99.90
20416;DHT22;10367;52.202;5.996;2023-06-26T04:21:09;20.80;99.90
20416;DHT22;10367;52.202;5.996;2023-06-26T04:23:39;20.70;99.90
20416;DHT22;10367;52.202;5.996;2023-06-26T04:26:09;20.70;99.90
20416;DHT22;10367;52.202;5.996;2023-06-26T04:28:42;20.70;99.90
20416;DHT22;10367;52.202;5.996;2023-06-26T04:31:12;20.60;99.90
20416;DHT22;10367;52.202;5.996;2023-06-26T04:33:41;20.70;99.90
20416;DHT22;10367;52.202;5.996;2023-06-26T04:36:13;20.60;99.90
20416;DHT22;10367;52.202;5.996;2023-06-26T04:38:42;20.60;99.90
20416;DHT22;10367;52.202;5.996;2023-06-26T04:41:11;20.60;99.90
20416;DHT22;10367;52.202;5.996;2023-06-26T04:43:40;20.60;99.90
20416;DHT22;10367;52.202;5.996;2023-06-26T04:46:09;20.70;99.90
20416;DHT22;10367;52.202;5.996;2023-06-26T04:48:39;20.70;99.90
20416;DHT22;10367;52.202;5.996;2023-06-26T04:51:08;20.70;99.90
20416;DHT22;10367;52.202;5.996;2023-06-26T04:53:37;20.70;99.90
20416;DHT22;10367;52.202;5.996;2023-06-26T04:56:06;20.70;99.90
20416;DHT22;10367;52.202;5.996;2023-06-26T04:58:35;20.70;99.90
20416;DHT22;10367;52.202;5.996;2023-06-26T05:01:04;20.70;99.90
20416;DHT22;10367;52.202;5.996;2023-06-26T05:03:34;20.70;99.90
20416;DHT22;10367;52.202;5.996;2023-06-26T05:06:06;20.70;99.90
20416;DHT22;10367;52.202;5.996;2023-06-26T05:08:37;20.60;99.90
20416;DHT22;10367;52.202;5.996;2023-06-26T05:11:06;20.60;99.90
20416;DHT22;10367;52.202;5.996;2023-06-26T05:13:35;20.60;99.90
20416;DHT22;10367;52.202;5.996;2023-06-26T05:16:16;20.60;99.90
20416;DHT22;10367;52.202;5.996;2023-06-26T05:18:45;20.60;99.90
20416;DHT22;10367;52.202;5.996;2023-06-26T05:21:16;20.60;99.90
20416;DHT22;10367;52.202;5.996;2023-06-26T05:24:02;20.60;99.90
20416;DHT22;10367;52.202;5.996;2023-06-26T05:26:38;20.60;99.90
20416;DHT22;10367;52.202;5.996;2023-06-26T05:29:10;20.60;99.90
20416;DHT22;10367;52.202;5.996;2023-06-26T05:31:45;20.60;99.90
20416;DHT22;10367;52.202;5.996;2023-06-26T05:34:20;20.60;99.90
20416;DHT22;10367;52.202;5.996;2023-06-26T05:36:55;20.60;99.90
20416;DHT22;10367;52.202;5.996;2023-06-26T05:39:26;20.70;99.90
20416;DHT22;10367;52.202;5.996;2023-06-26T05:41:56;20.70;99.90
20416;DHT22;10367;52.202;5.996;2023-06-26T05:44:25;20.70;99.90
20416;DHT22;10367;52.202;5.996;2023-06-26T05:46:54;20.70;99.90
20416;DHT22;10367;52.202;5.996;2023-06-26T05:49:24;20.70;99.90
20416;DHT22;10367;52.202;5.996;2023-06-26T05:51:55;20.70;99.90
20416;DHT22;10367;52.202;5.996;2023-06-26T05:54:25;20.80;99.90
20416;DHT22;10367;52.202;5.996;2023-06-26T05:56:56;20.80;99.90
20416;DHT22;10367;52.202;5.996;2023-06-26T05:59:32;20.90;99.90
20416;DHT22;10367;52.202;5.996;2023-06-26T06:02:08;20.80;99.90
20416;DHT22;10367;52.202;5.996;2023-06-26T06:04:42;20.80;99.90
20416;DHT22;10367;52.202;5.996;2023-06-26T06:07:30;20.80;99.90
20416;DHT22;10367;52.202;5.996;2023-06-26T06:10:00;20.90;99.90
20416;DHT22;10367;52.202;5.996;2023-06-26T06:12:36;20.90;99.90
20416;DHT22;10367;52.202;5.996;2023-06-26T06:15:06;20.90;99.90
20416;DHT22;10367;52.202;5.996;2023-06-26T06:17:36;20.90;99.90
20416;DHT22;10367;52.202;5.996;2023-06-26T06:20:05;20.90;99.90
20416;DHT22;10367;52.202;5.996;2023-06-26T06:22:38;20.90;99.90
20416;DHT22;10367;52.202;5.996;2023-06-26T06:25:07;21.00;99.90
20416;DHT22;10367;52.202;5.996;2023-06-26T06:27:38;21.00;99.90
20416;DHT22;10367;52.202;5.996;2023-06-26T06:30:09;21.10;99.90
20416;DHT22;10367;52.202;5.996;2023-06-26T06:32:41;21.10;99.90
20416;DHT22;10367;52.202;5.996;2023-06-26T06:35:10;21.20;99.90
20416;DHT22;10367;52.202;5.996;2023-06-26T06:37:44;21.20;99.90
20416;DHT22;10367;52.202;5.996;2023-06-26T06:40:15;21.20;99.90
20416;DHT22;10367;52.202;5.996;2023-06-26T06:42:50;21.20;99.90
20416;DHT22;10367;52.202;5.996;2023-06-26T06:45:28;21.20;99.90
20416;DHT22;10367;52.202;5.996;2023-06-26T06:48:01;21.30;99.90
20416;DHT22;10367;52.202;5.996;2023-06-26T06:50:44;21.40;99.90
20416;DHT22;10367;52.202;5.996;2023-06-26T06:53:18;21.50;99.90
20416;DHT22;10367;52.202;5.996;2023-06-26T06:55:53;21.50;99.90
20416;DHT22;10367;52.202;5.996;2023-06-26T06:58:22;21.40;99.90
20416;DHT22;10367;52.202;5.996;2023-06-26T07:00:56;21.40;99.90
20416;DHT22;10367;52.202;5.996;2023-06-26T07:03:30;21.50;99.90
20416;DHT22;10367;52.202;5.996;2023-06-26T07:05:59;21.50;99.90
20416;DHT22;10367;52.202;5.996;2023-06-26T07:08:29;21.60;99.90
20416;DHT22;10367;52.202;5.996;2023-06-26T07:11:00;21.70;99.90
20416;DHT22;10367;52.202;5.996;2023-06-26T07:13:29;21.60;99.90
20416;DHT22;10367;52.202;5.996;2023-06-26T07:15:58;21.60;99.90
20416;DHT22;10367;52.202;5.996;2023-06-26T07:18:29;21.80;99.90
20416;DHT22;10367;52.202;5.996;2023-06-26T07:21:00;21.80;99.90
20416;DHT22;10367;52.202;5.996;2023-06-26T07:23:33;21.70;99.90
20416;DHT22;10367;52.202;5.996;2023-06-26T07:26:02;21.80;99.90
20416;DHT22;10367;52.202;5.996;2023-06-26T07:28:31;22.10;99.90
20416;DHT22;10367;52.202;5.996;2023-06-26T07:31:00;22.30;99.90
20416;DHT22;10367;52.202;5.996;2023-06-26T07:33:29;22.30;99.90
20416;DHT22;10367;52.202;5.996;2023-06-26T07:35:58;22.10;99.90
20416;DHT22;10367;52.202;5.996;2023-06-26T07:38:27;22.20;99.90
20416;DHT22;10367;52.202;5.996;2023-06-26T07:41:05;22.40;99.90
20416;DHT22;10367;52.202;5.996;2023-06-26T07:43:44;22.40;99.90
20416;DHT22;10367;52.202;5.996;2023-06-26T07:46:15;22.40;99.90
20416;DHT22;10367;52.202;5.996;2023-06-26T07:48:59;22.30;99.90
20416;DHT22;10367;52.202;5.996;2023-06-26T07:51:37;22.20;99.90
20416;DHT22;10367;52.202;5.996;2023-06-26T07:54:09;22.30;99.90
20416;DHT22;10367;52.202;5.996;2023-06-26T07:56:57;22.60;99.90
20416;DHT22;10367;52.202;5.996;2023-06-26T07:59:29;22.80;99.90
20416;DHT22;10367;52.202;5.996;2023-06-26T08:01:59;22.80;99.90
20416;DHT22;10367;52.202;5.996;2023-06-26T08:04:31;22.80;99.90
20416;DHT22;10367;52.202;5.996;2023-06-26T08:07:06;22.90;99.90
20416;DHT22;10367;52.202;5.996;2023-06-26T08:09:39;23.10;99.90
20416;DHT22;10367;52.202;5.996;2023-06-26T08:12:11;22.90;99.90
20416;DHT22;10367;52.202;5.996;2023-06-26T08:14:41;22.60;99.90
20416;DHT22;10367;52.202;5.996;2023-06-26T08:17:10;22.40;99.90
20416;DHT22;10367;52.202;5.996;2023-06-26T08:19:39;22.20;99.90
20416;DHT22;10367;52.202;5.996;2023-06-26T08:22:08;22.40;99.90
20416;DHT22;10367;52.202;5.996;2023-06-26T08:24:37;22.60;99.90
20416;DHT22;10367;52.202;5.996;2023-06-26T08:27:06;22.60;99.90
20416;DHT22;10367;52.202;5.996;2023-06-26T08:29:40;22.50;99.90
20416;DHT22;10367;52.202;5.996;2023-06-26T08:32:11;22.70;99.90
20416;DHT22;10367;52.202;5.996;2023-06-26T08:34:40;22.80;99.90
20416;DHT22;10367;52.202;5.996;2023-06-26T08:37:09;22.40;99.90
20416;DHT22;10367;52.202;5.996;2023-06-26T08:39:39;22.20;99.90
20416;DHT22;10367;52.202;5.996;2023-06-26T08:42:12;22.20;99.90
20416;DHT22;10367;52.202;5.996;2023-06-26T08:44:45;22.50;99.90
20416;DHT22;10367;52.202;5.996;2023-06-26T08:47:19;22.90;99.90
20416;DHT22;10367;52.202;5.996;2023-06-26T08:49:56;23.20;99.90
20416;DHT22;10367;52.202;5.996;2023-06-26T08:52:30;23.30;99.90
20416;DHT22;10367;52.202;5.996;2023-06-26T08:55:09;23.00;99.90
20416;DHT22;10367;52.202;5.996;2023-06-26T08:57:39;22.90;99.90
20416;DHT22;10367;52.202;5.996;2023-06-26T09:00:13;23.00;99.90
20416;DHT22;10367;52.202;5.996;2023-06-26T09:02:44;23.60;99.90
20416;DHT22;10367;52.202;5.996;2023-06-26T09:05:19;23.80;99.90
20416;DHT22;10367;52.202;5.996;2023-06-26T09:07:48;24.00;99.90
20416;DHT22;10367;52.202;5.996;2023-06-26T09:10:20;23.50;99.90
20416;DHT22;10367;52.202;5.996;2023-06-26T09:12:55;23.40;99.90
20416;DHT22;10367;52.202;5.996;2023-06-26T09:15:25;23.60;99.90
20416;DHT22;10367;52.202;5.996;2023-06-26T09:17:57;23.70;99.90
20416;DHT22;10367;52.202;5.996;2023-06-26T09:20:35;23.90;99.90
20416;DHT22;10367;52.202;5.996;2023-06-26T09:23:09;24.00;99.90
20416;DHT22;10367;52.202;5.996;2023-06-26T09:25:44;24.50;99.90
20416;DHT22;10367;52.202;5.996;2023-06-26T09:28:15;24.50;99.90
20416;DHT22;10367;52.202;5.996;2023-06-26T09:30:46;24.00;99.90
20416;DHT22;10367;52.202;5.996;2023-06-26T09:33:15;23.60;99.90
20416;DHT22;10367;52.202;5.996;2023-06-26T09:35:46;23.40;99.90
20416;DHT22;10367;52.202;5.996;2023-06-26T09:38:18;23.60;99.90
20416;DHT22;10367;52.202;5.996;2023-06-26T09:40:49;23.90;99.90
20416;DHT22;10367;52.202;5.996;2023-06-26T09:43:20;23.90;99.90
20416;DHT22;10367;52.202;5.996;2023-06-26T09:45:54;23.70;99.90
20416;DHT22;10367;52.202;5.996;2023-06-26T09:48:23;23.30;99.90
20416;DHT22;10367;52.202;5.996;2023-06-26T09:51:03;23.40;99.90
20416;DHT22;10367;52.202;5.996;2023-06-26T09:53:42;23.70;99.90
20416;DHT22;10367;52.202;5.996;2023-06-26T09:56:18;23.80;99.90
20416;DHT22;10367;52.202;5.996;2023-06-26T09:58:49;23.70;99.90
20416;DHT22;10367;52.202;5.996;2023-06-26T10:01:22;23.40;99.90
20416;DHT22;10367;52.202;5.996;2023-06-26T10:03:52;23.40;99.90
20416;DHT22;10367;52.202;5.996;2023-06-26T10:06:27;24.00;99.90
20416;DHT22;10367;52.202;5.996;2023-06-26T10:09:00;24.20;99.90
20416;DHT22;10367;52.202;5.996;2023-06-26T10:11:35;24.90;99.90
20416;DHT22;10367;52.202;5.996;2023-06-26T10:14:07;25.50;99.90
20416;DHT22;10367;52.202;5.996;2023-06-26T10:16:57;24.80;99.90
20416;DHT22;10367;52.202;5.996;2023-06-26T10:19:27;24.70;99.90
20416;DHT22;10367;52.202;5.996;2023-06-26T10:21:58;24.80;99.90
20416;DHT22;10367;52.202;5.996;2023-06-26T10:24:31;24.70;99.90
20416;DHT22;10367;52.202;5.996;2023-06-26T10:27:21;24.20;99.60
20416;DHT22;10367;52.202;5.996;2023-06-26T10:29:53;23.70;99.90
20416;DHT22;10367;52.202;5.996;2023-06-26T10:32:25;23.70;99.90
20416;DHT22;10367;52.202;5.996;2023-06-26T10:34:55;24.10;99.50
20416;DHT22;10367;52.202;5.996;2023-06-26T10:37:43;24.50;98.40
20416;DHT22;10367;52.202;5.996;2023-06-26T10:40:13;24.70;97.90
20416;DHT22;10367;52.202;5.996;2023-06-26T10:42:42;25.20;97.10
20416;DHT22;10367;52.202;5.996;2023-06-26T10:45:14;25.30;96.50
20416;DHT22;10367;52.202;5.996;2023-06-26T10:47:48;25.50;95.80
20416;DHT22;10367;52.202;5.996;2023-06-26T10:50:22;25.80;94.90
20416;DHT22;10367;52.202;5.996;2023-06-26T10:53:11;25.90;93.90
20416;DHT22;10367;52.202;5.996;2023-06-26T10:55:43;25.80;93.00
20416;DHT22;10367;52.202;5.996;2023-06-26T10:58:41;26.20;93.00
20416;DHT22;10367;52.202;5.996;2023-06-26T11:01:19;26.60;91.20
20416;DHT22;10367;52.202;5.996;2023-06-26T11:04:03;26.20;92.70
20416;DHT22;10367;52.202;5.996;2023-06-26T11:06:33;26.20;92.50
20416;DHT22;10367;52.202;5.996;2023-06-26T11:09:14;25.90;92.60
20416;DHT22;10367;52.202;5.996;2023-06-26T11:11:58;25.70;90.30
20416;DHT22;10367;52.202;5.996;2023-06-26T11:14:30;25.70;90.60
20416;DHT22;10367;52.202;5.996;2023-06-26T11:17:02;26.10;90.20
20416;DHT22;10367;52.202;5.996;2023-06-26T11:19:33;25.80;90.20
20416;DHT22;10367;52.202;5.996;2023-06-26T11:22:03;25.70;90.40
20416;DHT22;10367;52.202;5.996;2023-06-26T11:24:33;25.70;90.40
20416;DHT22;10367;52.202;5.996;2023-06-26T11:27:03;25.40;90.20
20416;DHT22;10367;52.202;5.996;2023-06-26T11:29:33;25.10;90.20
20416;DHT22;10367;52.202;5.996;2023-06-26T11:32:04;25.00;89.90
20416;DHT22;10367;52.202;5.996;2023-06-26T11:34:36;25.20;88.20
20416;DHT22;10367;52.202;5.996;2023-06-26T11:37:06;25.10;87.50
20416;DHT22;10367;52.202;5.996;2023-06-26T11:39:35;24.90;88.40
20416;DHT22;10367;52.202;5.996;2023-06-26T11:42:05;25.20;87.90
20416;DHT22;10367;52.202;5.996;2023-06-26T11:44:40;25.40;87.40
20416;DHT22;10367;52.202;5.996;2023-06-26T11:47:13;25.70;86.30
20416;DHT22;10367;52.202;5.996;2023-06-26T11:49:47;25.90;85.80
20416;DHT22;10367;52.202;5.996;2023-06-26T11:52:16;26.20;84.80
20416;DHT22;10367;52.202;5.996;2023-06-26T11:54:45;26.00;85.10
20416;DHT22;10367;52.202;5.996;2023-06-26T11:57:15;25.80;85.30
20416;DHT22;10367;52.202;5.996;2023-06-26T11:59:50;25.50;85.00
20416;DHT22;10367;52.202;5.996;2023-06-26T12:02:27;25.20;85.80
20416;DHT22;10367;52.202;5.996;2023-06-26T12:04:57;25.50;85.30
20416;DHT22;10367;52.202;5.996;2023-06-26T12:07:28;25.70;83.90
20416;DHT22;10367;52.202;5.996;2023-06-26T12:10:00;25.50;84.00
20416;DHT22;10367;52.202;5.996;2023-06-26T12:12:31;25.10;84.80
20416;DHT22;10367;52.202;5.996;2023-06-26T12:15:02;25.10;84.30
20416;DHT22;10367;52.202;5.996;2023-06-26T12:17:32;25.20;83.90
20416;DHT22;10367;52.202;5.996;2023-06-26T12:20:04;25.70;82.60
20416;DHT22;10367;52.202;5.996;2023-06-26T12:22:39;26.20;81.70
20416;DHT22;10367;52.202;5.996;2023-06-26T12:25:08;26.30;81.10
20416;DHT22;10367;52.202;5.996;2023-06-26T12:27:37;26.60;80.60
20416;DHT22;10367;52.202;5.996;2023-06-26T12:30:07;26.70;80.10
20416;DHT22;10367;52.202;5.996;2023-06-26T12:32:40;26.00;80.20
20416;DHT22;10367;52.202;5.996;2023-06-26T12:35:10;25.80;81.40
20416;DHT22;10367;52.202;5.996;2023-06-26T12:37:39;26.30;79.30
20416;DHT22;10367;52.202;5.996;2023-06-26T12:40:17;26.40;78.70
20416;DHT22;10367;52.202;5.996;2023-06-26T12:42:55;25.90;79.20
20416;DHT22;10367;52.202;5.996;2023-06-26T12:45:24;25.80;80.20
20416;DHT22;10367;52.202;5.996;2023-06-26T12:48:17;25.90;79.80
20416;DHT22;10367;52.202;5.996;2023-06-26T12:50:49;26.00;77.70
20416;DHT22;10367;52.202;5.996;2023-06-26T12:53:20;26.20;78.60
20416;DHT22;10367;52.202;5.996;2023-06-26T12:55:52;26.40;78.20
20416;DHT22;10367;52.202;5.996;2023-06-26T12:58:21;25.60;78.70
20416;DHT22;10367;52.202;5.996;2023-06-26T13:00:50;25.00;79.70
20416;DHT22;10367;52.202;5.996;2023-06-26T13:03:24;25.40;79.10
20416;DHT22;10367;52.202;5.996;2023-06-26T13:06:03;25.40;78.30
20416;DHT22;10367;52.202;5.996;2023-06-26T13:08:34;25.50;78.00
20416;DHT22;10367;52.202;5.996;2023-06-26T13:11:04;26.00;76.90
20416;DHT22;10367;52.202;5.996;2023-06-26T13:13:34;25.50;76.50
20416;DHT22;10367;52.202;5.996;2023-06-26T13:16:20;25.40;77.00
20416;DHT22;10367;52.202;5.996;2023-06-26T13:18:58;25.90;75.80
20416;DHT22;10367;52.202;5.996;2023-06-26T13:21:29;26.10;75.10
20416;DHT22;10367;52.202;5.996;2023-06-26T13:24:02;25.50;76.00
20416;DHT22;10367;52.202;5.996;2023-06-26T13:26:32;25.60;76.60
20416;DHT22;10367;52.202;5.996;2023-06-26T13:29:05;25.30;76.50
20416;DHT22;10367;52.202;5.996;2023-06-26T13:31:37;25.10;77.00
20416;DHT22;10367;52.202;5.996;2023-06-26T13:34:07;25.50;76.70
20416;DHT22;10367;52.202;5.996;2023-06-26T13:36:40;26.30;75.50
20416;DHT22;10367;52.202;5.996;2023-06-26T13:39:09;26.20;74.40
20416;DHT22;10367;52.202;5.996;2023-06-26T13:41:50;26.10;74.20
20416;DHT22;10367;52.202;5.996;2023-06-26T13:44:26;26.20;74.30
20416;DHT22;10367;52.202;5.996;2023-06-26T13:47:08;26.60;73.70
20416;DHT22;10367;52.202;5.996;2023-06-26T13:49:37;26.70;73.20
20416;DHT22;10367;52.202;5.996;2023-06-26T13:52:07;26.40;73.40
20416;DHT22;10367;52.202;5.996;2023-06-26T13:54:37;26.40;73.60
20416;DHT22;10367;52.202;5.996;2023-06-26T13:57:07;25.90;74.60
20416;DHT22;10367;52.202;5.996;2023-06-26T13:59:38;25.80;75.10
20416;DHT22;10367;52.202;5.996;2023-06-26T14:02:08;26.20;75.00
20416;DHT22;10367;52.202;5.996;2023-06-26T14:04:37;26.90;73.90
20416;DHT22;10367;52.202;5.996;2023-06-26T14:07:07;26.70;73.70
20416;DHT22;10367;52.202;5.996;2023-06-26T14:09:36;26.40;73.80
20416;DHT22;10367;52.202;5.996;2023-06-26T14:12:13;25.50;75.10
20416;DHT22;10367;52.202;5.996;2023-06-26T14:14:49;24.90;75.70
20416;DHT22;10367;52.202;5.996;2023-06-26T14:17:20;25.00;75.90
20416;DHT22;10367;52.202;5.996;2023-06-26T14:19:52;25.30;75.10
20416;DHT22;10367;52.202;5.996;2023-06-26T14:22:22;25.40;75.40
20416;DHT22;10367;52.202;5.996;2023-06-26T14:24:52;25.80;75.00
20416;DHT22;10367;52.202;5.996;2023-06-26T14:27:24;25.90;74.70
20416;DHT22;10367;52.202;5.996;2023-06-26T14:29:53;26.00;75.10
20416;DHT22;10367;52.202;5.996;2023-06-26T14:32:22;26.10;75.10
20416;DHT22;10367;52.202;5.996;2023-06-26T14:34:51;26.20;75.10
20416;DHT22;10367;52.202;5.996;2023-06-26T14:37:20;26.70;73.90
20416;DHT22;10367;52.202;5.996;2023-06-26T14:39:52;26.30;74.20
20416;DHT22;10367;52.202;5.996;2023-06-26T14:42:22;26.60;74.10
20416;DHT22;10367;52.202;5.996;2023-06-26T14:44:51;26.80;73.80
20416;DHT22;10367;52.202;5.996;2023-06-26T14:47:20;26.80;73.60
20416;DHT22;10367;52.202;5.996;2023-06-26T14:49:49;26.90;73.20
20416;DHT22;10367;52.202;5.996;2023-06-26T14:52:17;26.20;73.10
20416;DHT22;10367;52.202;5.996;2023-06-26T14:54:46;25.90;73.60
20416;DHT22;10367;52.202;5.996;2023-06-26T14:57:16;25.70;73.70
20416;DHT22;10367;52.202;5.996;2023-06-26T14:59:47;25.10;74.70
20416;DHT22;10367;52.202;5.996;2023-06-26T15:02:16;25.50;74.10
20416;DHT22;10367;52.202;5.996;2023-06-26T15:04:44;25.50;73.80
20416;DHT22;10367;52.202;5.996;2023-06-26T15:07:14;25.10;73.60
20416;DHT22;10367;52.202;5.996;2023-06-26T15:09:43;24.40;74.60
20416;DHT22;10367;52.202;5.996;2023-06-26T15:12:13;23.90;75.50
20416;DHT22;10367;52.202;5.996;2023-06-26T15:14:43;23.20;76.90
20416;DHT22;10367;52.202;5.996;2023-06-26T15:17:12;23.20;77.50
20416;DHT22;10367;52.202;5.996;2023-06-26T15:19:40;23.80;76.10
20416;DHT22;10367;52.202;5.996;2023-06-26T15:22:09;23.40;76.40
20416;DHT22;10367;52.202;5.996;2023-06-26T15:24:40;23.00;77.00
20416;DHT22;10367;52.202;5.996;2023-06-26T15:27:08;23.10;76.80
20416;DHT22;10367;52.202;5.996;2023-06-26T15:29:37;23.20;76.40
20416;DHT22;10367;52.202;5.996;2023-06-26T15:32:08;22.90;76.80
20416;DHT22;10367;52.202;5.996;2023-06-26T15:34:37;23.50;75.80
20416;DHT22;10367;52.202;5.996;2023-06-26T15:37:06;24.00;74.70
20416;DHT22;10367;52.202;5.996;2023-06-26T15:39:34;23.60;74.90
20416;DHT22;10367;52.202;5.996;2023-06-26T15:42:07;23.20;75.90
20416;DHT22;10367;52.202;5.996;2023-06-26T15:44:37;23.20;76.20
20416;DHT22;10367;52.202;5.996;2023-06-26T15:47:07;23.40;75.50
20416;DHT22;10367;52.202;5.996;2023-06-26T15:49:36;23.20;75.70
20416;DHT22;10367;52.202;5.996;2023-06-26T15:52:07;22.90;76.50
20416;DHT22;10367;52.202;5.996;2023-06-26T15:54:36;23.40;75.80
20416;DHT22;10367;52.202;5.996;2023-06-26T15:57:06;23.70;74.90
20416;DHT22;10367;52.202;5.996;2023-06-26T15:59:35;24.00;74.50
20416;DHT22;10367;52.202;5.996;2023-06-26T16:02:06;23.90;74.40